Aérodrome :
LOGIN :

S'inscrire | Disclaimer

   EN    FR    IT 

 










Légende :    VFR   VFR Marginal   IFR   IFR Intensif   IFR Très Intensif
Visi : 
Plafond : 
>= 8 km
>= 3000ft
5 à 8 km
1000 à 3000 ft
1500m à 5 km
500 à 1000 ft
800 à 1500m
200 à 500 ft
< 800m
< 200 ft
Symboles :   Orages  Brouillard  Fortes neiges  Fortes précipitations  Vent > 20 kt
SIGMETs :   Divers  Orages  Givrage  Turbulence  Onde Orograph.  Cendres Volcan.







- Altitude de l'aérodrome : 1367 ft
- Code IATA : FDH


EDNY - Friedrichshafen

DERNIER METAR :
  • 011720Z 23007KT 9999 -RA BKN050 OVC059 06/03 Q1010

METARs EXPIRÉS :
  • 011650Z 23007KT 9999 SCT038 OVC074 06/03 Q1010
  • 011620Z 26008KT 9999 BKN037 OVC090 07/02 Q1010
  • 011550Z 24005KT 9999 BKN037 OVC069 07/03 Q1010
  • 011520Z 25005KT 9999 -SHRA BKN033 OVC040 07/03 Q1010
  • 011450Z 21008KT 9999 -SHRA BKN033 OVC041 07/03 Q1010
  • 011440Z 21007KT 9999 -SHRA BKN033 OVC039 07/03 Q1010 RMK ATIS V

TAF TAF EDNY
Valide du 01 à 18h jusqu'au 02 à 18h UTC


011700Z 0118/0218 23007KT 9999 BKN030
TEMPO 0118/0218 RA
BECMG 0121/0123 25015G25KT
PROB30
TEMPO 0210/0215 26020G30KT
BECMG 0216/0218 24005KT
Pas de NOTAMs connus pour ce terrain.



MET'MAP, la Météo Aéronautique d'un coup d'oeil ! - Copyright ORBIFLY Décembre 2007 - Disclaimer

ORBIFLY MET'MAP TEAM :

Programmation & Développement : Alexandra Zaïnal
Conception & Développement : Baudouin d'Aumeries
Co-Programmation & Développement : Marc-Olivier Méhu
Soutien technique & logistique : Manuel Goepfert

Contact : metmap@orbifly.com




SOURCES & CREDITS :

   NOAA